createdAt,value
2018-12-18T00:00:20.528Z,35.08
2018-12-18T00:02:51.484Z,35.20
2018-12-18T00:05:26.026Z,37.13
2018-12-18T00:07:54.718Z,38.67
2018-12-18T00:10:25.192Z,36.93
2018-12-18T00:12:55.117Z,37.03
2018-12-18T00:15:24.719Z,39.30
2018-12-18T00:17:55.127Z,41.80
2018-12-18T00:20:24.695Z,40.83
2018-12-18T00:22:56.093Z,42.77
2018-12-18T00:25:26.574Z,42.53
2018-12-18T00:27:56.291Z,46.73
2018-12-18T00:30:26.861Z,46.77
2018-12-18T00:32:58.858Z,45.03
2018-12-18T00:35:29.204Z,44.13
2018-12-18T00:37:58.692Z,47.73
2018-12-18T00:40:28.607Z,47.80
2018-12-18T00:42:58.249Z,45.03
2018-12-18T00:45:27.201Z,48.63
2018-12-18T00:47:57.005Z,50.83
2018-12-18T00:50:26.305Z,51.80
2018-12-18T00:52:56.125Z,48.00
2018-12-18T00:55:24.580Z,45.67
2018-12-18T00:57:53.025Z,43.77
2018-12-18T01:00:21.597Z,45.90
2018-12-18T01:02:50.006Z,47.47
2018-12-18T01:05:19.839Z,46.23
2018-12-18T01:07:53.261Z,46.67
2018-12-18T01:10:21.267Z,46.07
2018-12-18T01:12:51.568Z,46.33
2018-12-18T01:15:20.109Z,47.33
2018-12-18T01:17:48.601Z,44.43
2018-12-18T01:20:17.237Z,44.77
2018-12-18T01:22:46.352Z,47.20
2018-12-18T01:25:15.284Z,44.50
2018-12-18T01:27:43.737Z,44.63
2018-12-18T01:30:12.523Z,44.90
2018-12-18T01:32:41.347Z,45.37
2018-12-18T01:35:09.838Z,43.10
2018-12-18T01:37:38.247Z,44.43
2018-12-18T01:40:07.210Z,45.13
2018-12-18T01:42:35.781Z,44.17
2018-12-18T01:45:04.768Z,44.73
2018-12-18T01:47:33.223Z,42.50
2018-12-18T01:50:02.237Z,39.83
2018-12-18T01:52:31.675Z,41.33
2018-12-18T01:55:00.084Z,38.33
2018-12-18T01:57:28.562Z,41.17
2018-12-18T01:59:57.102Z,41.07
2018-12-18T02:02:25.634Z,43.07
2018-12-18T02:04:54.695Z,40.53
2018-12-18T02:07:23.556Z,40.43
2018-12-18T02:09:52.032Z,42.03
2018-12-18T02:12:20.472Z,38.97
2018-12-18T02:14:48.937Z,41.10
2018-12-18T02:17:17.373Z,41.50
2018-12-18T02:19:45.831Z,43.20
2018-12-18T02:22:15.193Z,42.17
2018-12-18T02:24:44.261Z,42.30
2018-12-18T02:27:13.715Z,42.70
2018-12-18T02:29:42.168Z,43.57
2018-12-18T02:32:10.644Z,43.80
2018-12-18T02:34:39.278Z,46.30
2018-12-18T02:37:07.842Z,46.67
2018-12-18T02:39:36.307Z,44.13
2018-12-18T02:42:04.735Z,45.07
2018-12-18T02:44:33.311Z,43.53
2018-12-18T02:47:01.798Z,44.50
2018-12-18T02:49:31.214Z,47.50
2018-12-18T02:51:59.694Z,47.10
2018-12-18T02:54:28.186Z,48.33
2018-12-18T02:56:56.723Z,47.87
2018-12-18T02:59:25.227Z,45.70
2018-12-18T03:01:54.373Z,46.10
2018-12-18T03:04:23.440Z,46.53
2018-12-18T03:06:51.880Z,46.67
2018-12-18T03:09:20.466Z,49.10
2018-12-18T03:11:48.902Z,49.17
2018-12-18T03:14:17.331Z,46.90
2018-12-18T03:16:45.754Z,46.53
2018-12-18T03:19:14.310Z,47.43
2018-12-18T03:21:42.756Z,49.57
2018-12-18T03:24:11.255Z,48.87
2018-12-18T03:26:39.716Z,47.63
2018-12-18T03:29:08.648Z,48.63
2018-12-18T03:31:39.005Z,49.33
2018-12-18T03:34:07.462Z,49.23
2018-12-18T03:36:35.938Z,50.67
2018-12-18T03:39:06.549Z,51.40
2018-12-18T03:41:35.028Z,49.67
2018-12-18T03:44:03.565Z,48.20
2018-12-18T03:46:32.142Z,49.57
2018-12-18T03:49:01.510Z,52.47
2018-12-18T03:51:30.691Z,53.10
2018-12-18T03:53:59.264Z,50.53
2018-12-18T03:56:27.875Z,51.00
2018-12-18T03:58:56.329Z,46.93
2018-12-18T04:01:24.811Z,47.93
2018-12-18T04:03:53.245Z,46.83
2018-12-18T04:06:21.822Z,48.87
2018-12-18T04:08:50.540Z,48.77
2018-12-18T04:11:18.970Z,49.43
2018-12-18T04:13:47.428Z,50.00
2018-12-18T04:16:15.837Z,52.23
2018-12-18T04:18:44.291Z,49.73
2018-12-18T04:21:12.701Z,48.77
2018-12-18T04:23:41.112Z,48.03
2018-12-18T04:26:09.545Z,50.93
2018-12-18T04:28:38.000Z,48.57
2018-12-18T04:31:06.456Z,49.80
2018-12-18T04:33:35.030Z,49.00
2018-12-18T04:36:03.551Z,49.87
2018-12-18T04:38:31.993Z,49.67
2018-12-18T04:41:00.481Z,49.97
2018-12-18T04:43:28.971Z,47.23
2018-12-18T04:45:57.489Z,50.07
2018-12-18T04:48:25.973Z,47.40
2018-12-18T04:50:54.397Z,50.10
2018-12-18T04:53:22.877Z,50.10
2018-12-18T04:55:51.390Z,51.73
2018-12-18T04:58:19.826Z,52.37
2018-12-18T05:00:48.358Z,50.83
2018-12-18T05:03:16.910Z,54.70
2018-12-18T05:05:45.372Z,54.63
2018-12-18T05:08:13.809Z,56.23
2018-12-18T05:10:43.147Z,58.33
2018-12-18T05:13:11.613Z,58.47
2018-12-18T05:15:40.128Z,56.27
2018-12-18T05:18:08.608Z,59.83
2018-12-18T05:20:38.123Z,57.47
2018-12-18T05:23:06.641Z,60.10
2018-12-18T05:25:35.143Z,58.20
2018-12-18T05:28:03.681Z,61.40
2018-12-18T05:30:32.277Z,60.87
2018-12-18T05:33:00.794Z,61.77
2018-12-18T05:35:29.467Z,62.97
2018-12-18T05:37:58.266Z,61.43
2018-12-18T05:40:27.495Z,58.77
2018-12-18T05:42:56.707Z,60.10
2018-12-18T05:45:25.198Z,59.00
2018-12-18T05:47:53.676Z,58.90
2018-12-18T05:50:22.170Z,60.40
2018-12-18T05:52:50.644Z,57.20
2018-12-18T05:55:19.264Z,58.50
2018-12-18T05:57:47.753Z,58.57
2018-12-18T06:00:16.420Z,59.17
2018-12-18T06:02:45.447Z,56.90
2018-12-18T06:05:13.954Z,59.30
2018-12-18T06:07:42.510Z,62.60
2018-12-18T06:10:10.942Z,58.00
2018-12-18T06:12:39.387Z,58.47
2018-12-18T06:15:08.466Z,58.33
2018-12-18T06:17:36.894Z,60.20
2018-12-18T06:20:05.496Z,55.87
2018-12-18T06:22:33.916Z,56.17
2018-12-18T06:25:02.566Z,55.43
2018-12-18T06:27:31.157Z,56.53
2018-12-18T06:29:59.624Z,59.27
2018-12-18T06:32:28.176Z,52.77
2018-12-18T06:34:56.771Z,52.03
2018-12-18T06:37:25.360Z,55.70
2018-12-18T06:39:53.808Z,52.47
2018-12-18T06:42:22.259Z,54.00
2018-12-18T06:44:50.820Z,55.27
2018-12-18T06:47:19.293Z,64.13
2018-12-18T06:49:48.358Z,52.50
2018-12-18T06:52:16.842Z,53.97
2018-12-18T06:54:45.303Z,55.03
2018-12-18T06:57:13.958Z,51.73
2018-12-18T06:59:43.021Z,53.80
2018-12-18T07:02:11.518Z,54.97
2018-12-18T07:04:39.987Z,52.93
2018-12-18T07:07:08.466Z,51.63
2018-12-18T07:09:36.967Z,60.70
2018-12-18T07:12:05.474Z,58.87
2018-12-18T07:14:33.906Z,55.57
2018-12-18T07:17:02.366Z,55.47
2018-12-18T07:19:30.922Z,57.03
2018-12-18T07:21:59.367Z,54.97
2018-12-18T07:24:28.514Z,53.27
2018-12-18T07:26:57.577Z,47.87
2018-12-18T07:29:26.152Z,50.87
2018-12-18T07:31:54.848Z,53.50
2018-12-18T07:34:23.459Z,51.73
2018-12-18T07:36:52.483Z,54.77
2018-12-18T07:39:21.056Z,58.30
2018-12-18T07:41:49.622Z,55.07
2018-12-18T07:44:18.131Z,52.53
2018-12-18T07:46:46.694Z,51.80
2018-12-18T07:49:15.353Z,50.73
2018-12-18T07:51:43.911Z,48.37
2018-12-18T07:54:13.092Z,47.17
2018-12-18T07:56:41.851Z,52.40
2018-12-18T07:59:10.561Z,54.57
2018-12-18T08:01:39.041Z,49.93
2018-12-18T08:04:08.106Z,46.70
2018-12-18T08:06:36.814Z,51.83
2018-12-18T08:09:07.623Z,52.30
2018-12-18T08:11:42.657Z,56.57
2018-12-18T08:14:11.188Z,54.43
2018-12-18T08:16:39.724Z,58.30
2018-12-18T08:19:08.335Z,53.50
2018-12-18T08:21:36.865Z,54.37
2018-12-18T08:24:07.008Z,51.13
2018-12-18T08:26:35.454Z,50.90
2018-12-18T08:29:04.063Z,47.90
2018-12-18T08:31:32.593Z,48.90
2018-12-18T08:34:01.096Z,48.67
2018-12-18T08:36:29.680Z,50.10
2018-12-18T08:38:58.155Z,48.33
2018-12-18T08:41:26.740Z,44.07
2018-12-18T08:43:55.162Z,44.40
2018-12-18T08:46:23.670Z,43.73
2018-12-18T08:48:52.108Z,40.93
2018-12-18T08:51:21.132Z,40.93
2018-12-18T08:53:49.606Z,39.27
2018-12-18T08:56:18.057Z,40.70
2018-12-18T08:58:46.959Z,39.33
2018-12-18T09:01:15.478Z,39.63
2018-12-18T09:03:43.980Z,37.87
2018-12-18T09:06:12.845Z,36.80
2018-12-18T09:08:41.320Z,39.53
2018-12-18T09:11:09.781Z,38.70
2018-12-18T09:13:38.701Z,49.77
2018-12-18T09:16:11.405Z,56.27
2018-12-18T09:18:39.986Z,74.07
2018-12-18T09:21:08.554Z,48.57
2018-12-18T09:23:37.044Z,46.80
2018-12-18T09:26:05.534Z,40.80
2018-12-18T09:28:34.227Z,36.50
2018-12-18T09:31:02.823Z,37.73
2018-12-18T09:33:32.284Z,38.63
2018-12-18T09:36:00.768Z,38.10
2018-12-18T09:38:34.645Z,36.57
2018-12-18T09:41:09.788Z,37.80
2018-12-18T09:43:43.654Z,37.33
2018-12-18T09:46:12.118Z,34.93
2018-12-18T09:48:40.612Z,35.27
2018-12-18T09:51:09.251Z,33.90
2018-12-18T09:53:37.789Z,34.27
2018-12-18T09:56:08.859Z,31.90
2018-12-18T09:58:37.314Z,30.60
2018-12-18T10:01:05.811Z,29.97
2018-12-18T10:03:34.303Z,29.47
2018-12-18T10:06:02.811Z,28.57
2018-12-18T10:08:31.331Z,27.80
2018-12-18T10:11:00.005Z,27.27
2018-12-18T10:13:28.868Z,28.47
2018-12-18T10:15:57.303Z,26.47
2018-12-18T10:18:25.728Z,26.83
2018-12-18T10:20:54.871Z,29.03
2018-12-18T10:23:23.584Z,27.50
2018-12-18T10:25:52.082Z,27.00
2018-12-18T10:28:20.543Z,26.67
2018-12-18T10:30:49.040Z,26.00
2018-12-18T10:33:18.194Z,22.13
2018-12-18T10:35:46.614Z,22.40
2018-12-18T10:38:15.038Z,19.90
2018-12-18T10:40:43.970Z,18.77
2018-12-18T10:43:12.582Z,19.70
2018-12-18T10:45:41.258Z,18.00
2018-12-18T10:48:09.824Z,16.73
2018-12-18T10:50:38.235Z,16.03
2018-12-18T10:53:06.683Z,16.00
2018-12-18T10:55:35.233Z,14.77
2018-12-18T10:58:03.819Z,14.27
2018-12-18T11:00:38.318Z,13.97
2018-12-18T11:03:06.779Z,11.47
2018-12-18T11:05:35.463Z,13.20
2018-12-18T11:08:04.020Z,12.00
2018-12-18T11:10:32.544Z,12.50
2018-12-18T11:13:06.321Z,12.40
2018-12-18T11:15:34.803Z,12.83
2018-12-18T11:18:03.256Z,12.63
2018-12-18T11:20:31.827Z,13.37
2018-12-18T11:23:00.275Z,13.80
2018-12-18T11:25:28.922Z,13.43
2018-12-18T11:27:57.638Z,13.13
2018-12-18T11:30:26.143Z,11.97
2018-12-18T11:32:54.695Z,11.93
2018-12-18T11:35:23.981Z,11.07
2018-12-18T11:37:52.406Z,10.67
2018-12-18T11:40:20.910Z,10.70
2018-12-18T11:42:49.408Z,11.63
2018-12-18T11:45:17.973Z,11.40
2018-12-18T11:47:46.473Z,12.33
2018-12-18T11:50:15.301Z,12.03
2018-12-18T11:52:43.780Z,12.43
2018-12-18T11:55:12.992Z,12.73
2018-12-18T11:57:41.597Z,13.90
2018-12-18T12:00:12.879Z,12.93
2018-12-18T12:02:42.919Z,12.90
2018-12-18T12:05:11.730Z,11.77
2018-12-18T12:07:40.314Z,12.43
2018-12-18T12:10:08.984Z,12.50
2018-12-18T12:12:37.516Z,13.23
2018-12-18T12:15:06.644Z,14.37
2018-12-18T12:17:35.960Z,13.87
2018-12-18T12:20:04.742Z,14.97
2018-12-18T12:22:33.357Z,13.90
2018-12-18T12:25:02.207Z,14.07
2018-12-18T12:27:36.283Z,14.43
2018-12-18T12:30:05.553Z,14.97
2018-12-18T12:32:34.062Z,13.57
2018-12-18T12:35:02.546Z,12.13
2018-12-18T12:37:31.088Z,11.30
2018-12-18T12:39:59.655Z,12.20
2018-12-18T12:42:28.112Z,11.53
2018-12-18T12:44:56.735Z,10.97
2018-12-18T12:47:25.242Z,10.13
2018-12-18T12:49:53.765Z,10.67
2018-12-18T12:52:22.185Z,10.97
2018-12-18T12:54:50.709Z,10.93
2018-12-18T12:57:19.130Z,11.30
2018-12-18T12:59:47.583Z,10.70
2018-12-18T13:02:16.010Z,12.20
2018-12-18T13:04:45.366Z,12.50
2018-12-18T13:07:13.805Z,12.80
2018-12-18T13:09:42.392Z,11.50
2018-12-18T13:12:10.858Z,12.50
2018-12-18T13:14:39.309Z,11.37
2018-12-18T13:17:07.971Z,11.67
2018-12-18T13:19:36.413Z,10.53
2018-12-18T13:22:05.470Z,10.87
2018-12-18T13:24:34.010Z,10.07
2018-12-18T13:27:02.619Z,11.57
2018-12-18T13:29:31.408Z,11.37
2018-12-18T13:32:00.073Z,11.87
2018-12-18T13:34:28.764Z,11.83
2018-12-18T13:36:57.225Z,11.57
2018-12-18T13:39:25.759Z,12.03
2018-12-18T13:41:54.208Z,13.07
2018-12-18T13:44:22.651Z,12.13
2018-12-18T13:46:51.109Z,14.37
2018-12-18T13:49:19.695Z,16.20
2018-12-18T13:51:48.144Z,11.83
2018-12-18T13:54:16.797Z,15.20
2018-12-18T13:56:45.249Z,14.17
2018-12-18T13:59:13.826Z,12.47
2018-12-18T14:01:42.285Z,22.13
2018-12-18T14:04:12.674Z,16.73
2018-12-18T14:06:41.134Z,18.70
2018-12-18T14:09:10.095Z,15.20
2018-12-18T14:11:38.534Z,13.93
2018-12-18T14:14:07.333Z,15.00
2018-12-18T14:16:35.840Z,15.03
2018-12-18T14:19:04.444Z,15.60
2018-12-18T14:21:32.920Z,20.07
2018-12-18T14:24:01.356Z,15.73
2018-12-18T14:26:29.834Z,16.77
2018-12-18T14:28:58.527Z,15.77
2018-12-18T14:31:26.991Z,13.77
2018-12-18T14:33:55.470Z,15.60
2018-12-18T14:36:23.947Z,16.50
2018-12-18T14:38:52.394Z,15.37
2018-12-18T14:41:20.902Z,28.80
2018-12-18T14:43:49.422Z,20.07
2018-12-18T14:46:17.883Z,16.70
2018-12-18T14:48:46.404Z,17.63
2018-12-18T14:51:14.978Z,19.70
2018-12-18T14:53:43.433Z,19.27
2018-12-18T14:56:11.961Z,17.60
2018-12-18T14:58:40.412Z,16.70
2018-12-18T15:01:09.084Z,19.67
2018-12-18T15:03:37.540Z,19.73
2018-12-18T15:06:06.003Z,18.67
2018-12-18T15:08:34.451Z,18.50
2018-12-18T15:11:03.224Z,18.70
2018-12-18T15:13:31.689Z,18.53
2018-12-18T15:16:00.331Z,17.60
2018-12-18T15:18:28.917Z,19.30
2018-12-18T15:20:57.901Z,18.23
2018-12-18T15:23:26.358Z,18.37
2018-12-18T15:25:54.881Z,17.57
2018-12-18T15:28:23.398Z,19.77
2018-12-18T15:30:51.905Z,27.47
2018-12-18T15:33:20.422Z,35.17
2018-12-18T15:35:49.217Z,27.23
2018-12-18T15:38:17.738Z,22.63
2018-12-18T15:40:46.373Z,21.97
2018-12-18T15:43:14.826Z,20.67
2018-12-18T15:45:43.372Z,21.53
2018-12-18T15:48:11.825Z,22.57
2018-12-18T15:50:40.277Z,22.03
2018-12-18T15:53:08.710Z,21.23
2018-12-18T15:55:37.146Z,20.43
2018-12-18T15:58:05.588Z,18.83
2018-12-18T16:00:34.203Z,19.53
2018-12-18T16:03:02.775Z,20.27
2018-12-18T16:05:31.352Z,20.03
2018-12-18T16:07:59.833Z,21.20
2018-12-18T16:10:28.272Z,19.63
2018-12-18T16:12:56.742Z,20.33
2018-12-18T16:15:25.321Z,19.43
2018-12-18T16:17:53.898Z,20.60
2018-12-18T16:20:22.522Z,20.63
2018-12-18T16:22:50.955Z,21.40
2018-12-18T16:25:20.048Z,20.77
2018-12-18T16:27:48.471Z,20.83
2018-12-18T16:30:16.982Z,20.03
2018-12-18T16:32:45.448Z,20.23
2018-12-18T16:35:14.002Z,21.90
2018-12-18T16:37:42.489Z,24.93
2018-12-18T16:40:10.989Z,29.27
2018-12-18T16:42:39.419Z,31.77
2018-12-18T16:45:08.511Z,26.93
2018-12-18T16:47:37.591Z,22.03
2018-12-18T16:50:07.081Z,22.37
2018-12-18T16:52:35.502Z,21.80
2018-12-18T16:55:04.136Z,22.63
2018-12-18T16:57:32.553Z,21.67
2018-12-18T17:00:01.085Z,21.23
2018-12-18T17:02:29.829Z,21.13
2018-12-18T17:04:58.308Z,17.30
2018-12-18T17:07:29.727Z,19.17
2018-12-18T17:09:57.274Z,18.07
2018-12-18T17:12:25.771Z,17.13
2018-12-18T17:14:54.326Z,16.43
2018-12-18T17:17:22.759Z,16.50
2018-12-18T17:19:51.208Z,16.17
2018-12-18T17:22:19.789Z,16.30
2018-12-18T17:24:48.252Z,15.50
2018-12-18T17:27:16.671Z,15.93
2018-12-18T17:29:45.272Z,16.53
2018-12-18T17:32:13.700Z,16.37
2018-12-18T17:34:42.281Z,15.00
2018-12-18T17:37:10.794Z,16.00
2018-12-18T17:39:39.355Z,15.43
2018-12-18T17:42:08.274Z,16.33
2018-12-18T17:44:36.813Z,16.50
2018-12-18T17:47:05.392Z,16.33
2018-12-18T17:49:33.886Z,16.70
2018-12-18T17:52:03.101Z,16.03
2018-12-18T17:54:31.550Z,16.90
2018-12-18T17:57:00.221Z,17.23
2018-12-18T17:59:28.647Z,16.90
2018-12-18T18:01:57.232Z,15.27
2018-12-18T18:04:25.978Z,17.60
2018-12-18T18:06:54.515Z,15.80
2018-12-18T18:09:23.301Z,17.40
2018-12-18T18:11:51.996Z,17.73
2018-12-18T18:14:20.475Z,16.97
2018-12-18T18:16:49.125Z,14.83
2018-12-18T18:19:17.607Z,15.03
2018-12-18T18:21:46.039Z,17.73
2018-12-18T18:24:14.795Z,15.50
2018-12-18T18:26:43.273Z,18.83
2018-12-18T18:29:11.795Z,16.27
2018-12-18T18:31:40.359Z,19.20
2018-12-18T18:34:08.965Z,18.67
2018-12-18T18:36:37.448Z,17.67
2018-12-18T18:39:08.126Z,15.93
2018-12-18T18:41:36.797Z,19.03
2018-12-18T18:44:05.265Z,19.47
2018-12-18T18:46:33.811Z,20.73
2018-12-18T18:49:02.435Z,19.30
2018-12-18T18:51:30.863Z,17.83
2018-12-18T18:53:59.894Z,18.37
2018-12-18T18:56:29.572Z,17.27
2018-12-18T18:58:58.073Z,18.17
2018-12-18T19:01:26.570Z,20.00
2018-12-18T19:03:55.341Z,20.17
2018-12-18T19:06:26.004Z,12.80
2018-12-18T19:08:55.516Z,14.07
2018-12-18T19:11:24.000Z,17.70
2018-12-18T19:13:52.461Z,15.83
2018-12-18T19:16:20.937Z,17.00
2018-12-18T19:18:49.367Z,18.37
2018-12-18T19:21:17.933Z,18.47
2018-12-18T19:23:46.549Z,18.63
2018-12-18T19:26:15.103Z,18.37
2018-12-18T19:28:50.081Z,19.53
2018-12-18T19:31:15.006Z,17.57
2018-12-18T19:33:43.566Z,16.33
2018-12-18T19:36:12.598Z,19.43
2018-12-18T19:38:41.162Z,17.17
2018-12-18T19:41:09.751Z,15.50
2018-12-18T19:43:39.424Z,14.97
2018-12-18T19:46:07.977Z,17.63
2018-12-18T19:48:36.743Z,16.03
2018-12-18T19:51:05.213Z,14.73
2018-12-18T19:53:33.695Z,19.20
2018-12-18T19:56:04.959Z,17.40
2018-12-18T19:58:33.546Z,16.80
2018-12-18T20:01:03.016Z,15.60
2018-12-18T20:03:31.622Z,19.10
2018-12-18T20:06:00.303Z,22.90
2018-12-18T20:08:30.190Z,19.20
2018-12-18T20:10:59.077Z,17.67
2018-12-18T20:13:27.578Z,18.80
2018-12-18T20:15:56.213Z,18.23
2018-12-18T20:18:24.705Z,18.43
2018-12-18T20:20:53.264Z,19.47
2018-12-18T20:23:21.703Z,18.83
2018-12-18T20:25:50.478Z,18.57
2018-12-18T20:28:19.135Z,18.93
2018-12-18T20:33:22.405Z,19.30
2018-12-18T20:35:50.894Z,19.10
2018-12-18T20:38:19.498Z,18.80
2018-12-18T20:40:47.988Z,19.37
2018-12-18T20:43:16.856Z,19.83
2018-12-18T20:45:45.538Z,21.30
2018-12-18T20:48:13.994Z,20.17
2018-12-18T20:50:42.497Z,20.27
2018-12-18T20:53:10.983Z,22.50
2018-12-18T20:55:39.516Z,18.37
2018-12-18T20:58:14.755Z,20.20
2018-12-18T21:00:43.976Z,18.57
2018-12-18T21:03:12.739Z,20.60
2018-12-18T21:05:41.199Z,20.07
2018-12-18T21:08:09.904Z,20.80
2018-12-18T21:10:38.345Z,19.97
2018-12-18T21:13:12.302Z,19.13
2018-12-18T21:15:40.912Z,22.47
2018-12-18T21:18:09.436Z,26.50
2018-12-18T21:20:38.128Z,18.90
2018-12-18T21:23:06.689Z,20.07
2018-12-18T21:25:35.350Z,19.40
2018-12-18T21:28:03.945Z,16.33
2018-12-18T21:30:33.378Z,19.60
2018-12-18T21:33:03.165Z,19.03
2018-12-18T21:35:31.762Z,17.73
2018-12-18T21:38:00.446Z,18.57
2018-12-18T21:40:28.961Z,18.10
2018-12-18T21:42:57.563Z,17.47
2018-12-18T21:45:26.254Z,18.83
2018-12-18T21:47:54.927Z,16.00
2018-12-18T21:50:23.570Z,16.57
2018-12-18T21:52:52.383Z,17.37
2018-12-18T21:55:21.055Z,16.33
2018-12-18T21:57:50.126Z,13.57
2018-12-18T22:00:19.170Z,13.23
2018-12-18T22:02:47.960Z,17.37
2018-12-18T22:05:16.557Z,16.53
2018-12-18T22:07:45.461Z,15.87
2018-12-18T22:10:14.149Z,16.10
2018-12-18T22:12:42.735Z,15.37
2018-12-18T22:15:11.285Z,17.20
2018-12-18T22:17:40.480Z,16.70
2018-12-18T22:20:09.237Z,16.13
2018-12-18T22:22:37.994Z,14.93
2018-12-18T22:25:06.684Z,15.80
2018-12-18T22:27:35.456Z,13.83
2018-12-18T22:30:04.980Z,15.00
2018-12-18T22:32:33.567Z,15.97
2018-12-18T22:35:02.501Z,16.00
2018-12-18T22:37:30.936Z,17.23
2018-12-18T22:39:59.404Z,16.70
2018-12-18T22:42:27.970Z,17.13
2018-12-18T22:44:56.433Z,15.27
2018-12-18T22:47:25.017Z,15.93
2018-12-18T22:49:53.517Z,16.00
2018-12-18T22:52:22.640Z,15.33
2018-12-18T22:54:51.923Z,15.73
2018-12-18T22:57:20.488Z,17.50
2018-12-18T22:59:48.983Z,16.17
2018-12-18T23:02:18.092Z,15.60
2018-12-18T23:04:47.086Z,15.90
2018-12-18T23:07:15.570Z,14.13
2018-12-18T23:09:44.023Z,16.93
2018-12-18T23:12:12.515Z,14.33
2018-12-18T23:14:40.948Z,13.27
2018-12-18T23:17:09.566Z,18.83
2018-12-18T23:19:38.034Z,15.30
2018-12-18T23:22:06.592Z,16.63
2018-12-18T23:24:35.038Z,12.83
2018-12-18T23:27:03.602Z,13.10
2018-12-18T23:29:33.132Z,13.90
2018-12-18T23:32:01.679Z,16.17
2018-12-18T23:34:33.119Z,14.03
2018-12-18T23:37:01.110Z,14.57
2018-12-18T23:39:29.571Z,15.57
2018-12-18T23:41:58.430Z,17.17
2018-12-18T23:44:26.961Z,17.47
2018-12-18T23:46:55.434Z,15.63
2018-12-18T23:49:23.882Z,12.70
2018-12-18T23:51:52.410Z,14.53
2018-12-18T23:54:20.996Z,14.00
2018-12-18T23:56:49.441Z,14.20
2018-12-18T23:59:17.889Z,14.27
